Time;durP1;ratioP1;P1;durP2;ratioP2;P2;SDS_P1;SDS_P2;PMS_P1;PMS_P2;Temp;Humidity;BMP_temperature;BMP_pressure;BME280_temperature;BME280_humidity;BME280_pressure;Samples;Min_cycle;Max_cycle;Signal;HPM_P1;HPM_P2
2022/12/20 00:00:51;;;;;;;;;9.67;9.33;;;;;13.22;65.17;100915.38;2106014;27;46470;-62
2022/12/20 00:01:51;;;;;;;;;11.00;11.00;;;;;13.21;65.19;100903.84;2105832;27;46508;-61
2022/12/20 00:02:52;;;;;;;;;11.00;11.00;;;;;13.22;65.48;100912.72;2112068;27;46225;-61
2022/12/20 00:03:56;;;;;;;;;11.67;10.33;;;;;13.20;65.35;100910.06;2105650;27;46237;-61
2022/12/20 00:04:56;;;;;;;;;9.75;9.75;;;;;13.21;65.31;100922.50;2106372;27;46759;-61
2022/12/20 00:05:57;;;;;;;;;10.67;9.67;;;;;13.20;65.15;100912.72;2113178;27;46133;-61
2022/12/20 00:06:58;;;;;;;;;6.00;5.25;;;;;13.20;65.29;100923.38;2110132;27;46870;-61
2022/12/20 00:07:58;;;;;;;;;11.00;10.00;;;;;13.20;65.36;100909.19;2104745;28;46843;-62
2022/12/20 00:09:00;;;;;;;;;8.67;8.67;;;;;13.20;65.19;100920.72;2105720;27;46570;-62
2022/12/20 00:10:01;;;;;;;;;8.00;8.00;;;;;13.21;65.34;100913.59;2106687;27;47100;-62
2022/12/20 00:11:04;;;;;;;;;9.00;9.00;;;;;13.21;65.40;100919.84;2114213;27;46770;-62
2022/12/20 00:12:04;;;;;;;;;8.25;8.25;;;;;13.22;65.45;100921.56;2109446;27;46868;-62
2022/12/20 00:13:05;;;;;;;;;9.00;8.00;;;;;13.21;65.41;100918.94;2106104;27;46751;-62
2022/12/20 00:14:07;;;;;;;;;11.00;11.00;;;;;13.21;65.27;100917.16;2105494;27;45863;-61
2022/12/20 00:15:08;;;;;;;;;8.00;8.00;;;;;13.21;65.44;100908.28;2108098;27;46771;-62
2022/12/20 00:16:17;;;;;;;;;9.25;9.25;;;;;13.20;65.30;100910.06;2110160;27;46600;-62
2022/12/20 00:17:18;;;;;;;;;8.75;8.75;;;;;13.19;65.43;100895.00;2105363;28;45326;-62
2022/12/20 00:18:18;;;;;;;;;11.75;11.50;;;;;13.19;65.57;100900.31;2106943;27;46330;-61
2022/12/20 00:19:19;;;;;;;;;8.00;8.00;;;;;13.19;65.29;100899.44;2105626;27;46827;-61
2022/12/20 00:20:19;;;;;;;;;13.00;10.67;;;;;13.19;65.42;100899.44;2110736;27;47165;-62
2022/12/20 00:21:20;;;;;;;;;11.67;10.00;;;;;13.19;65.57;100892.31;2113794;27;46450;-62
2022/12/20 00:22:20;;;;;;;;;11.50;11.50;;;;;13.18;65.47;100897.69;2105006;28;46655;-61
2022/12/20 00:23:21;;;;;;;;;12.33;11.00;;;;;13.20;65.42;100906.53;2106145;27;46026;-61
2022/12/20 00:24:21;;;;;;;;;9.00;9.00;;;;;13.20;65.49;100895.88;2105770;27;45987;-62
2022/12/20 00:25:21;;;;;;;;;10.33;10.00;;;;;13.19;65.50;100895.00;2105510;27;46829;-62
2022/12/20 00:26:25;;;;;;;;;11.00;11.00;;;;;13.20;65.43;100890.53;2105554;27;45511;-63
2022/12/20 00:27:25;;;;;;;;;8.50;8.50;;;;;13.20;65.59;100888.75;2106082;27;46880;-61
2022/12/20 00:28:26;;;;;;;;;9.00;9.00;;;;;13.20;65.45;100883.41;2105690;27;46637;-62
2022/12/20 00:29:26;;;;;;;;;9.33;8.33;;;;;13.20;65.36;100890.53;2105742;27;46419;-62
2022/12/20 00:30:27;;;;;;;;;9.00;9.00;;;;;13.20;65.55;100879.88;2105341;27;46969;-61
2022/12/20 00:31:30;;;;;;;;;8.75;8.00;;;;;13.19;65.21;100883.47;2105550;27;45964;-62
2022/12/20 00:32:30;;;;;;;;;9.00;8.50;;;;;13.18;65.36;100871.94;2105812;27;48548;-63
2022/12/20 00:33:31;;;;;;;;;10.00;9.00;;;;;13.18;65.37;100879.03;2113038;27;46533;-62
2022/12/20 00:34:32;;;;;;;;;7.50;7.50;;;;;13.18;65.30;100885.25;2111036;27;46202;-62
2022/12/20 00:35:32;;;;;;;;;9.33;9.33;;;;;13.17;65.52;100886.16;2104820;28;46475;-61
2022/12/20 00:36:32;;;;;;;;;7.67;7.67;;;;;13.16;65.38;100892.41;2097112;28;46267;-62
2022/12/20 00:37:33;;;;;;;;;8.67;7.67;;;;;13.16;65.36;100886.19;2104774;28;45920;-63
2022/12/20 00:38:33;;;;;;;;;9.33;9.00;;;;;13.16;65.56;100888.84;2105591;27;46288;-62
2022/12/20 00:39:34;;;;;;;;;9.00;9.00;;;;;13.16;65.37;100875.53;2095562;28;46351;-63
2022/12/20 00:40:34;;;;;;;;;9.33;8.33;;;;;13.15;65.47;100873.78;2096176;28;46289;-63
2022/12/20 00:41:35;;;;;;;;;10.67;9.00;;;;;13.14;65.36;100880.91;2105636;28;45276;-63
2022/12/20 00:42:35;;;;;;;;;9.00;9.00;;;;;13.15;65.37;100868.47;2107362;27;46266;-62
2022/12/20 00:43:38;;;;;;;;;9.33;9.33;;;;;13.15;65.47;100865.78;2114184;27;46797;-62
2022/12/20 00:44:38;;;;;;;;;9.50;8.50;;;;;13.15;65.47;100865.78;2108719;27;46493;-63
2022/12/20 00:45:38;;;;;;;;;6.33;5.67;;;;;13.15;65.40;100871.13;2105991;27;47009;-62
2022/12/20 00:46:39;;;;;;;;;8.33;7.67;;;;;13.14;65.54;100864.94;2105431;27;46614;-63
2022/12/20 00:47:39;;;;;;;;;8.00;8.00;;;;;13.15;65.56;100872.00;2105875;27;46419;-63
2022/12/20 00:48:39;;;;;;;;;9.33;9.33;;;;;13.15;65.52;100874.66;2105951;27;46314;-61
2022/12/20 00:49:40;;;;;;;;;10.67;9.33;;;;;13.15;65.45;100877.31;2112823;27;46258;-62
2022/12/20 00:50:40;;;;;;;;;8.67;8.33;;;;;13.15;65.53;100880.00;2111294;27;46210;-61
2022/12/20 00:51:40;;;;;;;;;9.33;9.33;;;;;13.15;65.43;100874.66;2104879;28;46337;-60
2022/12/20 00:52:41;;;;;;;;;7.67;7.67;;;;;13.15;65.32;100874.66;2104664;27;46425;-61
2022/12/20 00:53:41;;;;;;;;;7.67;7.00;;;;;13.15;65.48;100869.34;2105847;27;46662;-61
2022/12/20 00:54:42;;;;;;;;;7.67;6.67;;;;;13.14;65.40;100875.59;2097057;28;46683;-60
2022/12/20 00:55:44;;;;;;;;;7.00;7.00;;;;;13.17;65.58;100867.50;2100251;28;46599;-61
2022/12/20 00:56:44;;;;;;;;;9.00;8.00;;;;;13.17;65.35;100875.47;2105292;27;46876;-61
2022/12/20 00:57:44;;;;;;;;;9.33;9.00;;;;;13.17;65.50;100872.81;2106067;27;46943;-62
2022/12/20 00:58:45;;;;;;;;;8.67;8.33;;;;;13.18;65.31;100873.69;2105334;27;46573;-61
2022/12/20 00:59:46;;;;;;;;;10.00;10.00;;;;;13.17;65.41;100883.47;2105392;27;47007;-62
2022/12/20 01:00:46;;;;;;;;;8.00;8.00;;;;;13.17;65.37;100875.47;2105351;27;46761;-62
2022/12/20 01:01:47;;;;;;;;;11.75;10.50;;;;;13.17;65.53;100874.63;2105379;27;46750;-62
2022/12/20 01:02:47;;;;;;;;;9.67;9.33;;;;;13.17;65.27;100875.47;2110654;27;46303;-61
2022/12/20 01:03:49;;;;;;;;;9.67;9.67;;;;;13.17;65.47;100875.47;2107263;27;46808;-62
2022/12/20 01:04:49;;;;;;;;;9.50;9.50;;;;;13.18;65.49;100873.69;2113746;27;46500;-61
2022/12/20 01:06:00;;;;;;;;;7.33;7.33;;;;;13.17;65.20;100875.47;2107603;27;46189;-62
2022/12/20 01:07:01;;;;;;;;;8.00;8.00;;;;;13.17;65.58;100870.16;2107811;27;46060;-61
2022/12/20 01:08:02;;;;;;;;;10.67;10.33;;;;;13.16;65.39;100868.41;2113818;27;46787;-61
2022/12/20 01:09:04;;;;;;;;;8.00;8.00;;;;;13.17;65.30;100880.81;2107263;27;46699;-62
2022/12/20 01:10:05;;;;;;;;;10.50;8.00;;;;;13.17;65.38;100877.28;2105519;27;46715;-62
2022/12/20 01:11:09;;;;;;;;;9.25;9.25;;;;;13.17;65.52;100880.81;2105449;27;46627;-62
2022/12/20 01:12:10;;;;;;;;;10.00;8.25;;;;;13.17;65.45;100879.94;2105327;27;47053;-61
2022/12/20 01:13:10;;;;;;;;;7.67;7.33;;;;;13.17;65.32;100878.16;2105289;27;46160;-62
2022/12/20 01:14:15;;;;;;;;;9.67;8.67;;;;;13.18;65.49;100879.03;2105219;27;46886;-61
2022/12/20 01:15:15;;;;;;;;;10.25;10.00;;;;;13.17;65.22;100879.94;2105491;27;46593;-61
2022/12/20 01:16:22;;;;;;;;;8.67;8.67;;;;;13.17;65.44;100874.63;2105201;27;46554;-60
2022/12/20 01:17:22;;;;;;;;;8.75;7.75;;;;;13.17;65.45;100878.16;2105171;28;46607;-61
2022/12/20 01:18:22;;;;;;;;;8.67;7.00;;;;;13.17;65.46;100871.94;2108546;27;45940;-62
2022/12/20 01:19:23;;;;;;;;;8.00;8.00;;;;;13.19;65.48;100879.00;2114163;27;46619;-63
2022/12/20 01:20:24;;;;;;;;;8.00;8.00;;;;;13.19;65.41;100870.13;2106937;27;46626;-61
2022/12/20 01:21:25;;;;;;;;;9.33;8.67;;;;;13.19;65.29;100872.81;2105257;27;46939;-62
2022/12/20 01:22:26;;;;;;;;;7.00;6.25;;;;;13.19;65.43;100871.00;2104490;28;46321;-63
2022/12/20 01:23:26;;;;;;;;;7.67;7.67;;;;;13.19;65.20;100868.34;2104768;28;46282;-63
2022/12/20 01:24:27;;;;;;;;;9.33;8.33;;;;;13.19;65.20;100868.34;2105458;28;46222;-63
2022/12/20 01:25:27;;;;;;;;;7.00;7.00;;;;;13.18;65.43;100874.59;2105265;27;46882;-61
2022/12/20 01:26:29;;;;;;;;;8.00;8.00;;;;;13.19;65.23;100875.47;2105344;27;46711;-62
2022/12/20 01:27:29;;;;;;;;;8.25;8.00;;;;;13.20;65.34;100877.22;2105357;27;46678;-62
2022/12/20 01:28:31;;;;;;;;;6.67;6.67;;;;;13.19;65.22;100871.00;2105133;27;46367;-61
2022/12/20 01:29:31;;;;;;;;;8.75;8.75;;;;;13.19;65.25;100868.34;2104861;27;46772;-62
2022/12/20 01:30:32;;;;;;;;;9.33;8.33;;;;;13.19;65.39;100868.34;2104712;28;46908;-62
2022/12/20 01:31:32;;;;;;;;;7.33;7.33;;;;;13.20;65.17;100866.56;2110508;27;46790;-62
2022/12/20 01:32:33;;;;;;;;;8.00;8.00;;;;;13.19;65.39;100872.81;2112540;27;45341;-61
2022/12/20 01:33:34;;;;;;;;;8.00;7.00;;;;;13.19;65.34;100868.34;2104844;28;46755;-61
2022/12/20 01:34:34;;;;;;;;;7.75;6.50;;;;;13.20;65.47;100866.56;2109051;27;46372;-63
2022/12/20 01:35:35;;;;;;;;;10.00;8.00;;;;;13.19;65.52;100859.47;2104724;28;46911;-62
2022/12/20 01:36:37;;;;;;;;;7.00;7.00;;;;;13.19;65.47;100859.47;2096904;28;46678;-61
2022/12/20 01:37:37;;;;;;;;;8.50;8.50;;;;;13.18;65.32;100853.28;2098096;28;47085;-61
2022/12/20 01:38:37;;;;;;;;;7.33;7.33;;;;;13.19;65.24;100857.69;2104658;28;46625;-61
2022/12/20 01:39:38;;;;;;;;;9.00;9.00;;;;;13.19;65.21;100855.03;2104490;27;46309;-62
2022/12/20 01:40:38;;;;;;;;;9.00;8.67;;;;;13.19;65.29;100849.69;2104537;28;46362;-61
2022/12/20 01:41:43;;;;;;;;;6.00;6.00;;;;;13.19;65.46;100852.34;2104478;27;46246;-60
2022/12/20 01:42:44;;;;;;;;;7.50;7.50;;;;;13.20;65.49;100858.56;2104117;28;46692;-62
2022/12/20 01:43:49;;;;;;;;;10.00;10.00;;;;;13.20;65.38;100867.41;2105605;27;46332;-61
2022/12/20 01:44:53;;;;;;;;;9.00;8.75;;;;;13.21;65.50;100858.53;2105075;27;46802;-61
2022/12/20 01:45:53;;;;;;;;;8.00;6.25;;;;;13.21;65.32;100862.97;2102657;27;46474;-61
2022/12/20 01:46:54;;;;;;;;;7.00;7.00;;;;;13.21;65.45;100855.88;2104499;28;45685;-61
2022/12/20 01:47:58;;;;;;;;;9.67;9.67;;;;;13.22;65.33;100862.94;2110589;27;46528;-61
2022/12/20 01:49:09;;;;;;;;;8.00;8.00;;;;;13.22;65.41;100865.63;2103769;27;46747;-61
2022/12/20 01:50:10;;;;;;;;;7.00;6.00;;;;;13.23;65.40;100858.50;2096557;28;46961;-62
2022/12/20 01:51:10;;;;;;;;;10.00;10.00;;;;;13.23;65.37;100859.38;2102854;28;46853;-62
2022/12/20 01:52:17;;;;;;;;;9.00;9.00;;;;;13.23;65.42;100851.38;2104225;27;46615;-61
2022/12/20 01:53:21;;;;;;;;;8.25;8.25;;;;;13.22;65.47;100849.63;2104553;28;47205;-62
2022/12/20 01:54:27;;;;;;;;;8.00;8.00;;;;;13.22;64.97;100848.75;2105222;27;46419;-61
2022/12/20 01:55:27;;;;;;;;;8.75;7.50;;;;;13.22;65.41;100859.41;2105991;27;46414;-62
2022/12/20 01:56:28;;;;;;;;;9.00;9.00;;;;;13.23;65.25;100869.16;2104921;27;46531;-61
2022/12/20 01:57:52;;;;;;;;;9.00;8.00;;;;;13.23;65.38;100858.50;2112235;27;46204;-62
2022/12/20 01:58:54;;;;;;;;;8.50;7.00;;;;;13.23;65.20;100861.16;2109214;27;47073;-62
2022/12/20 01:59:56;;;;;;;;;10.20;9.20;;;;;13.21;65.39;100858.53;2104947;27;46451;-62
2022/12/20 02:00:56;;;;;;;;;8.25;8.25;;;;;13.22;65.33;100849.63;2104319;27;46140;-62
2022/12/20 02:01:58;;;;;;;;;7.00;7.00;;;;;13.22;65.12;100862.94;2104399;27;46352;-62
2022/12/20 02:03:02;;;;;;;;;8.00;8.00;;;;;13.22;65.38;100862.06;2096882;28;46756;-62
2022/12/20 02:04:02;;;;;;;;;8.75;7.00;;;;;13.23;65.26;100855.81;2101541;28;46489;-62
2022/12/20 02:05:03;;;;;;;;;7.67;6.00;;;;;13.22;65.45;100860.28;2112949;27;45630;-61
2022/12/20 02:06:17;;;;;;;;;7.00;7.00;;;;;13.23;65.23;100853.16;2112864;27;46515;-62
2022/12/20 02:07:24;;;;;;;;;8.00;8.00;;;;;13.23;65.28;100856.69;2099703;27;46835;-61
2022/12/20 02:08:24;;;;;;;;;5.25;5.25;;;;;13.23;65.26;100859.38;2097852;27;46345;-63
2022/12/20 02:09:26;;;;;;;;;9.00;7.67;;;;;13.23;65.28;100846.03;2113641;27;46607;-62
2022/12/20 02:10:49;;;;;;;;;7.50;6.75;;;;;13.24;65.20;100863.78;2108938;27;46863;-63
2022/12/20 02:11:55;;;;;;;;;7.50;7.50;;;;;13.23;64.95;100859.38;2105193;27;45621;-61
2022/12/20 02:13:06;;;;;;;;;7.75;7.75;;;;;13.24;65.28;100860.22;2105182;27;46552;-61
2022/12/20 02:14:21;;;;;;;;;7.00;7.00;;;;;13.24;65.08;100868.22;2104917;28;46248;-62
2022/12/20 02:15:38;;;;;;;;;7.25;7.25;;;;;13.23;65.16;100864.69;2100473;27;45421;-62
2022/12/20 02:16:46;;;;;;;;;7.50;7.50;;;;;13.22;64.89;100864.75;2098205;28;46852;-62
2022/12/20 02:18:05;;;;;;;;;8.00;8.00;;;;;13.22;65.08;100862.06;2112772;27;46517;-61
2022/12/20 02:19:39;;;;;;;;;8.00;8.00;;;;;13.21;65.27;100865.63;2096299;28;46421;-61
2022/12/20 02:20:51;;;;;;;;;5.25;5.25;;;;;13.20;65.25;100859.44;2096398;28;46073;-62
2022/12/20 02:22:00;;;;;;;;;7.00;6.75;;;;;13.21;65.19;100855.88;2101547;28;46471;-61
2022/12/20 02:23:21;;;;;;;;;7.50;7.50;;;;;13.22;65.19;100857.63;2103878;27;47158;-61
2022/12/20 02:24:36;;;;;;;;;8.50;7.50;;;;;13.21;64.81;100861.19;2105087;27;47023;-62
2022/12/20 02:25:57;;;;;;;;;8.75;8.75;;;;;13.21;65.18;100866.53;2096524;28;46098;-61
2022/12/20 02:27:16;;;;;;;;;5.50;5.50;;;;;13.21;65.03;100869.19;2108756;27;46395;-61
2022/12/20 02:28:56;;;;;;;;;7.50;7.50;;;;;13.22;65.26;100864.75;2109301;27;46992;-62
2022/12/20 02:30:01;;;;;;;;;7.75;7.25;;;;;13.22;64.87;100859.41;2100431;27;45070;-62
2022/12/20 02:31:07;;;;;;;;;7.50;6.75;;;;;13.23;64.89;100867.34;2096507;28;46772;-62
2022/12/20 02:32:15;;;;;;;;;10.25;9.75;;;;;13.23;64.70;100858.50;2096319;28;47166;-62
2022/12/20 02:33:18;;;;;;;;;6.25;6.25;;;;;13.22;64.95;100854.09;2100477;28;46792;-62
2022/12/20 02:34:23;;;;;;;;;7.00;7.00;;;;;13.21;65.06;100854.97;2104986;27;46554;-61
2022/12/20 02:35:28;;;;;;;;;9.25;9.25;;;;;13.22;65.04;100859.41;2104529;27;46465;-60
2022/12/20 02:36:28;;;;;;;;;9.25;8.00;;;;;13.21;65.01;100852.31;2104707;27;46185;-62
2022/12/20 02:37:29;;;;;;;;;10.00;10.00;;;;;13.22;65.10;100838.09;2104923;27;46523;-60
2022/12/20 02:38:33;;;;;;;;;6.33;6.33;;;;;13.22;64.67;100849.63;2104873;27;46622;-63
2022/12/20 02:39:36;;;;;;;;;8.50;7.00;;;;;13.22;64.93;100843.41;2102217;27;46454;-62
2022/12/20 02:40:41;;;;;;;;;8.50;7.00;;;;;13.21;64.94;100836.31;2096472;28;46816;-62
2022/12/20 02:41:50;;;;;;;;;9.75;8.00;;;;;13.21;64.71;100839.88;2096298;28;46771;-61
2022/12/20 02:42:56;;;;;;;;;9.50;6.25;;;;;13.20;64.72;100834.56;2107219;27;46567;-63
2022/12/20 02:45:36;;;;;;;;;9.75;7.75;;;;;13.18;64.74;100839.94;2104876;28;46216;-61
2022/12/20 02:46:37;;;;;;;;;4.25;4.25;;;;;13.17;64.78;100838.19;2104847;27;46633;-61
2022/12/20 02:47:45;;;;;;;;;6.00;6.00;;;;;13.17;64.84;100832.84;2102069;27;46652;-62
2022/12/20 02:48:48;;;;;;;;;7.25;7.25;;;;;13.16;64.82;100836.44;2096345;28;47037;-61
2022/12/20 02:49:50;;;;;;;;;7.50;7.50;;;;;13.15;64.84;100829.38;2096640;28;45686;-61
2022/12/20 02:50:53;;;;;;;;;7.75;7.75;;;;;13.16;64.85;100830.22;2099511;28;45865;-61
2022/12/20 02:51:56;;;;;;;;;7.00;6.00;;;;;13.15;64.85;100826.69;2104713;27;46433;-62
2022/12/20 02:52:58;;;;;;;;;9.25;8.25;;;;;13.16;64.69;100827.56;2104469;27;46525;-62
2022/12/20 02:53:59;;;;;;;;;9.75;9.75;;;;;13.13;64.61;100815.22;2104896;27;46577;-61
2022/12/20 02:55:02;;;;;;;;;8.00;7.00;;;;;13.14;64.74;100822.28;2104804;27;46742;-61
2022/12/20 02:56:14;;;;;;;;;6.75;6.00;;;;;13.14;64.66;100811.63;2105555;27;46367;-61
2022/12/20 02:57:35;;;;;;;;;8.75;8.75;;;;;13.14;64.70;100810.75;2104766;27;46434;-62
2022/12/20 02:58:42;;;;;;;;;6.75;6.75;;;;;13.14;64.84;100805.44;2104664;27;46386;-61
2022/12/20 02:59:52;;;;;;;;;8.25;6.75;;;;;13.14;64.69;100794.78;2104676;27;46706;-61
2022/12/20 03:00:58;;;;;;;;;6.25;6.25;;;;;13.15;64.82;100799.19;2105378;27;46459;-63
2022/12/20 03:01:58;;;;;;;;;8.00;8.00;;;;;13.15;64.60;100800.06;2104743;27;46729;-62
2022/12/20 03:04:24;;;;;;;;;6.00;6.00;;;;;13.15;64.66;100788.53;2104792;27;46482;-61
2022/12/20 03:05:26;;;;;;;;;7.75;7.75;;;;;13.14;64.55;100797.44;2104802;27;46615;-62
2022/12/20 03:06:26;;;;;;;;;6.50;4.00;;;;;13.13;64.70;100788.56;2104517;27;46362;-61
2022/12/20 03:07:32;;;;;;;;;9.67;8.00;;;;;13.13;64.87;100799.22;2111155;27;46526;-61
2022/12/20 03:08:33;;;;;;;;;6.00;6.00;;;;;13.12;64.56;100786.84;2110884;27;46447;-60
2022/12/20 03:09:36;;;;;;;;;9.00;7.00;;;;;13.12;64.77;100794.81;2104787;27;46098;-61
2022/12/20 03:10:37;;;;;;;;;7.50;7.25;;;;;13.11;64.55;100795.75;2104472;27;46666;-62
2022/12/20 03:11:37;;;;;;;;;5.67;5.33;;;;;13.10;64.60;100790.47;2104619;27;46643;-62
2022/12/20 03:12:37;;;;;;;;;7.00;7.00;;;;;13.10;64.54;100790.47;2104745;27;45376;-63
2022/12/20 03:13:38;;;;;;;;;5.67;5.00;;;;;13.10;64.82;100793.13;2105169;27;46275;-62
2022/12/20 03:14:39;;;;;;;;;8.33;8.00;;;;;13.11;64.79;100794.88;2105552;28;46449;-62
2022/12/20 03:15:39;;;;;;;;;7.00;7.00;;;;;13.10;64.51;100794.00;2106082;27;46576;-62
2022/12/20 03:16:40;;;;;;;;;6.00;6.00;;;;;13.09;64.55;100797.59;2105899;27;46752;-62
2022/12/20 03:17:40;;;;;;;;;5.67;5.67;;;;;13.09;64.62;100781.59;2105639;28;46635;-61
2022/12/20 03:18:41;;;;;;;;;5.00;5.00;;;;;13.10;64.65;100782.47;2105438;28;46204;-61
2022/12/20 03:19:41;;;;;;;;;10.67;8.00;;;;;13.10;64.50;100787.81;2105578;27;46486;-61
2022/12/20 03:20:42;;;;;;;;;8.00;7.33;;;;;13.10;64.54;100795.78;2099831;27;46259;-63
2022/12/20 03:21:43;;;;;;;;;6.75;6.75;;;;;13.08;64.50;100787.81;2105655;28;46348;-61
2022/12/20 03:22:43;;;;;;;;;7.00;6.67;;;;;13.10;64.65;100796.66;2097386;28;46783;-62
2022/12/20 03:23:43;;;;;;;;;6.33;6.33;;;;;13.10;64.67;100798.47;2105016;28;46767;-61
2022/12/20 03:24:44;;;;;;;;;7.00;7.00;;;;;13.11;64.73;100806.41;2113858;27;46447;-62
2022/12/20 03:25:44;;;;;;;;;6.33;6.33;;;;;13.10;64.59;100804.66;2111263;27;46257;-62
2022/12/20 03:26:45;;;;;;;;;7.33;7.00;;;;;13.10;64.62;100802.00;2105359;28;46192;-61
2022/12/20 03:27:45;;;;;;;;;7.00;6.67;;;;;13.10;64.54;100810.00;2099515;28;46644;-62
2022/12/20 03:28:45;;;;;;;;;6.00;6.00;;;;;13.09;64.55;100796.72;2102930;28;46415;-62
2022/12/20 03:29:46;;;;;;;;;4.67;4.67;;;;;13.11;64.55;100802.88;2105481;27;46624;-62
2022/12/20 03:30:46;;;;;;;;;6.00;6.00;;;;;13.11;64.61;100802.88;2097668;28;46817;-62
2022/12/20 03:31:47;;;;;;;;;8.00;8.00;;;;;13.10;64.46;100804.66;2101352;28;46705;-61
2022/12/20 03:32:47;;;;;;;;;6.00;6.00;;;;;13.10;64.39;100798.47;2105955;27;46419;-63
2022/12/20 03:33:48;;;;;;;;;6.00;6.00;;;;;13.10;64.54;100795.78;2105742;28;46235;-62
2022/12/20 03:34:48;;;;;;;;;5.33;5.33;;;;;13.10;64.49;100796.66;2104099;27;46435;-62
2022/12/20 03:35:48;;;;;;;;;6.33;6.33;;;;;13.11;64.62;100787.75;2097685;28;46080;-61
2022/12/20 03:36:49;;;;;;;;;6.00;6.00;;;;;13.11;64.40;100794.88;2101204;28;46205;-60
2022/12/20 03:37:49;;;;;;;;;5.33;5.33;;;;;13.11;64.50;100789.53;2097782;28;46233;-62
2022/12/20 03:38:50;;;;;;;;;6.00;6.00;;;;;13.10;64.40;100790.47;2106076;27;46246;-62
2022/12/20 03:39:51;;;;;;;;;8.50;6.75;;;;;13.10;64.36;100796.66;2105775;28;46469;-61
2022/12/20 03:40:51;;;;;;;;;7.00;5.00;;;;;13.11;64.46;100800.19;2105923;27;45611;-61
2022/12/20 03:41:51;;;;;;;;;6.33;5.00;;;;;13.11;64.43;100805.53;2112932;27;46788;-62
2022/12/20 03:42:52;;;;;;;;;5.33;5.33;;;;;13.11;64.30;100802.88;2112761;27;46702;-62
2022/12/20 03:43:52;;;;;;;;;3.33;3.33;;;;;13.11;64.45;100801.06;2105894;27;46510;-61
2022/12/20 03:44:52;;;;;;;;;6.00;6.00;;;;;13.11;64.37;100801.06;2105588;27;46458;-61
2022/12/20 03:45:53;;;;;;;;;5.00;5.00;;;;;13.12;64.03;100801.94;2105880;27;46628;-61
2022/12/20 03:46:53;;;;;;;;;5.00;5.00;;;;;13.10;64.56;100804.66;2106173;27;46724;-62
2022/12/20 03:47:53;;;;;;;;;6.67;6.00;;;;;13.11;64.47;100808.19;2105504;27;46586;-61
2022/12/20 03:48:54;;;;;;;;;6.00;6.00;;;;;13.11;64.23;100809.06;2105972;28;46301;-61
2022/12/20 03:49:54;;;;;;;;;8.00;8.00;;;;;13.12;64.37;100808.16;2102909;28;46710;-62
2022/12/20 03:50:54;;;;;;;;;6.00;4.00;;;;;13.13;64.38;100801.03;2098759;28;46842;-61
2022/12/20 03:51:55;;;;;;;;;7.00;7.00;;;;;13.14;64.11;100790.31;2105779;28;46310;-61
2022/12/20 03:52:55;;;;;;;;;4.67;4.67;;;;;13.14;64.11;100794.78;2108839;27;46461;-62
2022/12/20 03:53:55;;;;;;;;;7.00;6.67;;;;;13.15;64.19;100791.19;2096812;28;46356;-61
2022/12/20 03:54:56;;;;;;;;;6.33;6.33;;;;;13.13;64.27;100788.56;2105504;28;46403;-61
2022/12/20 03:55:56;;;;;;;;;6.00;5.00;;;;;13.15;64.19;100788.53;2107022;27;46828;-61
2022/12/20 03:56:57;;;;;;;;;6.00;6.00;;;;;13.13;63.98;100780.59;2105330;27;46252;-62
2022/12/20 03:57:57;;;;;;;;;6.00;4.00;;;;;13.13;64.11;100780.59;2105331;28;45458;-62
2022/12/20 03:58:57;;;;;;;;;6.33;6.33;;;;;13.13;64.38;100787.69;2105476;28;46803;-61
2022/12/20 03:59:58;;;;;;;;;6.00;6.00;;;;;13.12;63.84;100786.84;2105715;27;46406;-62
2022/12/20 04:00:58;;;;;;;;;6.00;5.67;;;;;13.12;64.09;100791.28;2105364;28;46203;-62
2022/12/20 04:01:58;;;;;;;;;7.00;6.00;;;;;13.11;63.95;100786.88;2096627;28;46173;-60
2022/12/20 04:02:59;;;;;;;;;6.00;5.00;;;;;13.11;63.84;100785.09;2101119;27;46059;-62
2022/12/20 04:03:59;;;;;;;;;6.00;4.00;;;;;13.10;63.97;100782.47;2099154;28;46487;-61
2022/12/20 04:04:59;;;;;;;;;5.00;5.00;;;;;13.10;64.03;100782.47;2104886;28;45529;-61
2022/12/20 04:06:00;;;;;;;;;5.33;5.33;;;;;13.10;64.03;100779.81;2111131;27;46538;-62
2022/12/20 04:07:00;;;;;;;;;4.33;4.33;;;;;13.10;64.13;100783.34;2114151;27;46579;-64
2022/12/20 04:08:00;;;;;;;;;6.00;5.00;;;;;13.11;63.95;100779.75;2110907;27;46420;-62
2022/12/20 04:09:01;;;;;;;;;6.33;6.33;;;;;13.11;64.20;100782.44;2110731;27;46806;-62
2022/12/20 04:10:01;;;;;;;;;5.00;5.00;;;;;13.12;63.95;100783.28;2095906;28;46361;-62
2022/12/20 04:11:17;;;;;;;;;4.00;4.00;;;;;13.11;64.02;100782.44;2096297;28;46582;-63
2022/12/20 04:12:17;;;;;;;;;4.75;4.75;;;;;13.12;63.87;100778.84;2105504;27;45032;-62
2022/12/20 04:13:18;;;;;;;;;3.00;3.00;;;;;13.12;64.02;100770.84;2105185;28;45992;-62
2022/12/20 04:14:18;;;;;;;;;6.00;6.00;;;;;13.13;64.10;100772.59;2108303;27;46528;-61
2022/12/20 04:15:18;;;;;;;;;4.67;4.00;;;;;13.12;64.04;100765.50;2106048;27;46239;-61
2022/12/20 04:16:22;;;;;;;;;4.00;4.00;;;;;13.13;63.85;100767.25;2105792;27;46250;-61
2022/12/20 04:17:22;;;;;;;;;5.00;5.00;;;;;13.12;63.59;100761.97;2105612;27;46705;-62
2022/12/20 04:18:22;;;;;;;;;4.67;4.67;;;;;13.12;63.86;100756.66;2105852;27;45752;-60
2022/12/20 04:19:23;;;;;;;;;3.00;3.00;;;;;13.11;63.93;100753.13;2108750;27;46970;-61
2022/12/20 04:20:24;;;;;;;;;6.67;5.67;;;;;13.10;63.70;100756.69;2105611;27;46705;-61
2022/12/20 04:21:29;;;;;;;;;6.00;5.00;;;;;13.11;63.97;100762.91;2105767;27;46638;-62
2022/12/20 04:22:30;;;;;;;;;6.50;5.00;;;;;13.11;63.94;100746.91;2106457;27;46895;-62
2022/12/20 04:23:30;;;;;;;;;4.67;4.67;;;;;13.11;63.84;100753.13;2106083;27;46666;-62
2022/12/20 04:24:30;;;;;;;;;4.00;4.00;;;;;13.10;63.87;100753.16;2105308;27;46491;-61
2022/12/20 04:25:31;;;;;;;;;5.00;5.00;;;;;13.10;63.80;100747.84;2104798;28;46456;-61
2022/12/20 04:26:31;;;;;;;;;5.00;5.00;;;;;13.10;64.11;100745.19;2105439;28;45911;-61
2022/12/20 04:27:32;;;;;;;;;5.00;5.00;;;;;13.10;63.82;100755.84;2105140;27;46469;-61
2022/12/20 04:28:33;;;;;;;;;5.00;5.00;;;;;13.10;63.78;100758.50;2106109;27;46839;-61
2022/12/20 04:29:33;;;;;;;;;5.25;4.50;;;;;13.09;63.62;100746.09;2099196;27;46846;-60
2022/12/20 04:30:34;;;;;;;;;5.67;4.33;;;;;13.09;63.80;100746.09;2110774;27;46336;-61
2022/12/20 04:31:35;;;;;;;;;6.00;5.00;;;;;13.08;63.78;100747.84;2104234;28;45828;-62
2022/12/20 04:32:35;;;;;;;;;6.00;4.75;;;;;13.07;63.87;100739.91;2096221;28;46378;-62
2022/12/20 04:33:36;;;;;;;;;4.67;4.67;;;;;13.08;63.61;100745.19;2104702;28;46105;-61
2022/12/20 04:34:36;;;;;;;;;4.75;4.75;;;;;13.07;63.76;100745.25;2113640;27;45791;-62
2022/12/20 04:35:37;;;;;;;;;5.33;4.67;;;;;13.07;63.73;100747.91;2118223;27;45809;-61
2022/12/20 04:36:37;;;;;;;;;4.00;4.00;;;;;13.06;63.84;100743.50;2114414;27;46628;-61
2022/12/20 04:37:38;;;;;;;;;7.00;4.67;;;;;13.05;63.76;100745.28;2105906;27;46318;-62
2022/12/20 04:38:38;;;;;;;;;4.67;4.67;;;;;13.05;63.92;100744.44;2106395;27;46818;-61
2022/12/20 04:39:38;;;;;;;;;5.00;5.00;;;;;13.05;63.77;100739.09;2105658;27;45547;-61
2022/12/20 04:40:39;;;;;;;;;4.00;4.00;;;;;13.04;63.86;100743.56;2105436;27;46201;-61
2022/12/20 04:41:39;;;;;;;;;4.00;3.67;;;;;13.05;63.90;100741.75;2105321;27;46913;-61
2022/12/20 04:42:40;;;;;;;;;4.33;3.00;;;;;13.06;63.76;100744.38;2105547;27;47647;-62
2022/12/20 04:43:40;;;;;;;;;3.67;3.67;;;;;13.07;63.81;100745.25;2105939;27;46398;-62
2022/12/20 04:44:40;;;;;;;;;6.00;6.00;;;;;13.07;63.96;100753.25;2104945;28;46322;-62
2022/12/20 04:45:41;;;;;;;;;4.00;4.00;;;;;13.07;63.94;100745.25;2111119;27;46213;-61
2022/12/20 04:46:41;;;;;;;;;4.33;4.33;;;;;13.06;63.73;100747.03;2112027;27;45612;-62
2022/12/20 04:47:41;;;;;;;;;4.00;3.00;;;;;13.07;63.59;100746.13;2106221;27;46604;-62
2022/12/20 04:48:42;;;;;;;;;3.33;3.33;;;;;13.07;63.65;100746.13;2107938;27;45617;-62
2022/12/20 04:49:42;;;;;;;;;5.00;5.00;;;;;13.06;63.50;100744.38;2104586;28;46311;-62
2022/12/20 04:50:46;;;;;;;;;5.33;5.33;;;;;13.07;63.96;100756.78;2104893;28;46674;-61
2022/12/20 04:51:47;;;;;;;;;5.25;5.25;;;;;13.07;63.79;100745.25;2112959;27;46503;-61
2022/12/20 04:54:06;;;;;;;;;5.00;4.25;;;;;13.07;63.62;100748.78;2105321;28;47010;-62
2022/12/20 04:55:07;;;;;;;;;5.00;5.00;;;;;13.06;63.64;100741.72;2105250;28;46197;-61